sensor_id;sensor_type;location;lat;lon;timestamp;P1;durP1;ratioP1;P2;durP2;ratioP2
29246;SDS011;16272;48.188;9.964;2022-11-13T00:00:33;26.58;;;9.70;;
29246;SDS011;16272;48.188;9.964;2022-11-13T00:02:59;25.83;;;8.97;;
29246;SDS011;16272;48.188;9.964;2022-11-13T00:05:24;24.73;;;9.93;;
29246;SDS011;16272;48.188;9.964;2022-11-13T00:07:52;26.90;;;11.32;;
29246;SDS011;16272;48.188;9.964;2022-11-13T00:10:17;25.90;;;9.17;;
29246;SDS011;16272;48.188;9.964;2022-11-13T00:12:43;22.15;;;9.13;;
29246;SDS011;16272;48.188;9.964;2022-11-13T00:15:08;23.90;;;9.97;;
29246;SDS011;16272;48.188;9.964;2022-11-13T00:17:34;31.42;;;10.18;;
29246;SDS011;16272;48.188;9.964;2022-11-13T00:19:59;25.80;;;10.00;;
29246;SDS011;16272;48.188;9.964;2022-11-13T00:22:24;26.20;;;9.50;;
29246;SDS011;16272;48.188;9.964;2022-11-13T00:24:50;31.47;;;10.77;;
29246;SDS011;16272;48.188;9.964;2022-11-13T00:27:15;24.97;;;10.43;;
29246;SDS011;16272;48.188;9.964;2022-11-13T00:29:40;28.10;;;10.87;;
29246;SDS011;16272;48.188;9.964;2022-11-13T00:32:06;30.27;;;10.57;;
29246;SDS011;16272;48.188;9.964;2022-11-13T00:34:31;23.97;;;9.97;;
29246;SDS011;16272;48.188;9.964;2022-11-13T00:36:57;28.05;;;11.38;;
29246;SDS011;16272;48.188;9.964;2022-11-13T00:39:22;27.93;;;10.10;;
29246;SDS011;16272;48.188;9.964;2022-11-13T00:41:47;28.60;;;10.70;;
29246;SDS011;16272;48.188;9.964;2022-11-13T00:44:13;26.40;;;10.67;;
29246;SDS011;16272;48.188;9.964;2022-11-13T00:46:38;21.83;;;9.73;;
29246;SDS011;16272;48.188;9.964;2022-11-13T00:49:03;23.43;;;9.47;;
29246;SDS011;16272;48.188;9.964;2022-11-13T00:51:29;20.33;;;8.98;;
29246;SDS011;16272;48.188;9.964;2022-11-13T00:53:55;22.53;;;8.93;;
29246;SDS011;16272;48.188;9.964;2022-11-13T00:56:20;20.03;;;8.70;;
29246;SDS011;16272;48.188;9.964;2022-11-13T00:58:45;24.58;;;9.57;;
29246;SDS011;16272;48.188;9.964;2022-11-13T01:01:12;21.23;;;8.97;;
29246;SDS011;16272;48.188;9.964;2022-11-13T01:03:39;22.67;;;9.32;;
29246;SDS011;16272;48.188;9.964;2022-11-13T01:06:12;27.73;;;9.03;;
29246;SDS011;16272;48.188;9.964;2022-11-13T01:08:40;24.65;;;9.15;;
29246;SDS011;16272;48.188;9.964;2022-11-13T01:11:14;28.53;;;9.27;;
29246;SDS011;16272;48.188;9.964;2022-11-13T01:13:45;24.50;;;10.40;;
29246;SDS011;16272;48.188;9.964;2022-11-13T01:16:12;23.58;;;9.18;;
29246;SDS011;16272;48.188;9.964;2022-11-13T01:18:39;30.77;;;9.93;;
29246;SDS011;16272;48.188;9.964;2022-11-13T01:23:35;28.08;;;9.90;;
29246;SDS011;16272;48.188;9.964;2022-11-13T01:26:05;31.33;;;10.70;;
29246;SDS011;16272;48.188;9.964;2022-11-13T01:28:38;29.92;;;9.50;;
29246;SDS011;16272;48.188;9.964;2022-11-13T01:31:10;27.45;;;10.38;;
29246;SDS011;16272;48.188;9.964;2022-11-13T01:33:38;28.70;;;10.20;;
29246;SDS011;16272;48.188;9.964;2022-11-13T01:36:08;29.65;;;10.43;;
29246;SDS011;16272;48.188;9.964;2022-11-13T01:38:38;27.23;;;10.43;;
29246;SDS011;16272;48.188;9.964;2022-11-13T01:41:04;28.98;;;10.95;;
29246;SDS011;16272;48.188;9.964;2022-11-13T01:43:31;32.92;;;10.75;;
29246;SDS011;16272;48.188;9.964;2022-11-13T01:51:01;28.30;;;10.75;;
29246;SDS011;16272;48.188;9.964;2022-11-13T01:53:32;23.58;;;10.32;;
29246;SDS011;16272;48.188;9.964;2022-11-13T01:55:57;25.37;;;9.93;;
29246;SDS011;16272;48.188;9.964;2022-11-13T01:58:23;25.03;;;9.90;;
29246;SDS011;16272;48.188;9.964;2022-11-13T02:00:48;26.10;;;10.13;;
29246;SDS011;16272;48.188;9.964;2022-11-13T02:03:14;24.40;;;9.73;;
29246;SDS011;16272;48.188;9.964;2022-11-13T02:05:39;22.13;;;9.30;;
29246;SDS011;16272;48.188;9.964;2022-11-13T02:08:04;25.50;;;10.47;;
29246;SDS011;16272;48.188;9.964;2022-11-13T02:10:35;24.63;;;8.77;;
29246;SDS011;16272;48.188;9.964;2022-11-13T02:13:00;22.17;;;9.65;;
29246;SDS011;16272;48.188;9.964;2022-11-13T02:15:26;22.37;;;9.63;;
29246;SDS011;16272;48.188;9.964;2022-11-13T02:17:56;19.40;;;8.55;;
29246;SDS011;16272;48.188;9.964;2022-11-13T02:20:29;19.05;;;7.68;;
29246;SDS011;16272;48.188;9.964;2022-11-13T02:23:08;18.63;;;8.32;;
29246;SDS011;16272;48.188;9.964;2022-11-13T02:25:41;19.30;;;8.35;;
29246;SDS011;16272;48.188;9.964;2022-11-13T02:28:08;19.23;;;7.80;;
29246;SDS011;16272;48.188;9.964;2022-11-13T02:30:34;19.73;;;8.20;;
29246;SDS011;16272;48.188;9.964;2022-11-13T02:33:00;18.42;;;7.80;;
29246;SDS011;16272;48.188;9.964;2022-11-13T02:35:27;19.42;;;8.00;;
29246;SDS011;16272;48.188;9.964;2022-11-13T02:37:56;19.02;;;7.60;;
29246;SDS011;16272;48.188;9.964;2022-11-13T02:40:23;17.27;;;7.60;;
29246;SDS011;16272;48.188;9.964;2022-11-13T02:42:49;21.27;;;8.18;;
29246;SDS011;16272;48.188;9.964;2022-11-13T02:45:16;17.57;;;7.77;;
29246;SDS011;16272;48.188;9.964;2022-11-13T02:47:42;16.95;;;7.43;;
29246;SDS011;16272;48.188;9.964;2022-11-13T02:50:07;18.40;;;7.63;;
29246;SDS011;16272;48.188;9.964;2022-11-13T02:55:05;19.58;;;7.90;;
29246;SDS011;16272;48.188;9.964;2022-11-13T02:57:31;20.13;;;7.85;;
29246;SDS011;16272;48.188;9.964;2022-11-13T02:59:56;16.87;;;7.77;;
29246;SDS011;16272;48.188;9.964;2022-11-13T03:02:23;19.10;;;7.67;;
29246;SDS011;16272;48.188;9.964;2022-11-13T03:04:48;16.75;;;7.47;;
29246;SDS011;16272;48.188;9.964;2022-11-13T03:07:13;16.80;;;7.57;;
29246;SDS011;16272;48.188;9.964;2022-11-13T03:09:39;18.80;;;7.70;;
29246;SDS011;16272;48.188;9.964;2022-11-13T03:12:07;20.02;;;8.45;;
29246;SDS011;16272;48.188;9.964;2022-11-13T03:14:33;18.63;;;7.63;;
29246;SDS011;16272;48.188;9.964;2022-11-13T03:16:59;16.73;;;7.13;;
29246;SDS011;16272;48.188;9.964;2022-11-13T03:19:24;16.57;;;7.83;;
29246;SDS011;16272;48.188;9.964;2022-11-13T03:21:50;20.05;;;8.07;;
29246;SDS011;16272;48.188;9.964;2022-11-13T03:24:15;18.30;;;8.47;;
29246;SDS011;16272;48.188;9.964;2022-11-13T03:26:40;17.40;;;7.97;;
29246;SDS011;16272;48.188;9.964;2022-11-13T03:29:06;19.43;;;8.07;;
29246;SDS011;16272;48.188;9.964;2022-11-13T03:31:31;19.13;;;7.53;;
29246;SDS011;16272;48.188;9.964;2022-11-13T03:33:57;18.60;;;7.50;;
29246;SDS011;16272;48.188;9.964;2022-11-13T03:36:22;19.57;;;8.20;;
29246;SDS011;16272;48.188;9.964;2022-11-13T03:38:48;19.45;;;8.57;;
29246;SDS011;16272;48.188;9.964;2022-11-13T03:41:13;18.03;;;8.40;;
29246;SDS011;16272;48.188;9.964;2022-11-13T03:43:44;15.57;;;6.93;;
29246;SDS011;16272;48.188;9.964;2022-11-13T03:46:10;20.65;;;7.63;;
29246;SDS011;16272;48.188;9.964;2022-11-13T03:48:41;17.80;;;7.63;;
29246;SDS011;16272;48.188;9.964;2022-11-13T03:51:06;17.77;;;7.22;;
29246;SDS011;16272;48.188;9.964;2022-11-13T03:53:32;17.03;;;6.63;;
29246;SDS011;16272;48.188;9.964;2022-11-13T03:55:57;18.00;;;6.30;;
29246;SDS011;16272;48.188;9.964;2022-11-13T03:58:23;16.50;;;7.13;;
29246;SDS011;16272;48.188;9.964;2022-11-13T04:00:48;17.80;;;7.67;;
29246;SDS011;16272;48.188;9.964;2022-11-13T04:03:14;18.58;;;7.78;;
29246;SDS011;16272;48.188;9.964;2022-11-13T04:05:41;16.98;;;7.85;;
29246;SDS011;16272;48.188;9.964;2022-11-13T04:08:17;15.77;;;6.63;;
29246;SDS011;16272;48.188;9.964;2022-11-13T04:10:43;17.88;;;7.80;;
29246;SDS011;16272;48.188;9.964;2022-11-13T04:13:09;16.52;;;6.97;;
29246;SDS011;16272;48.188;9.964;2022-11-13T04:15:37;17.43;;;7.10;;
29246;SDS011;16272;48.188;9.964;2022-11-13T04:18:02;17.02;;;7.45;;
29246;SDS011;16272;48.188;9.964;2022-11-13T04:20:30;15.97;;;6.53;;
29246;SDS011;16272;48.188;9.964;2022-11-13T04:22:56;16.27;;;6.65;;
29246;SDS011;16272;48.188;9.964;2022-11-13T04:25:21;18.00;;;7.22;;
29246;SDS011;16272;48.188;9.964;2022-11-13T04:27:48;16.83;;;7.15;;
29246;SDS011;16272;48.188;9.964;2022-11-13T04:30:15;16.77;;;6.93;;
29246;SDS011;16272;48.188;9.964;2022-11-13T04:32:41;16.42;;;6.93;;
29246;SDS011;16272;48.188;9.964;2022-11-13T04:35:07;17.63;;;6.90;;
29246;SDS011;16272;48.188;9.964;2022-11-13T04:37:33;15.10;;;6.65;;
29246;SDS011;16272;48.188;9.964;2022-11-13T04:39:58;17.10;;;6.80;;
29246;SDS011;16272;48.188;9.964;2022-11-13T04:42:24;17.17;;;7.03;;
29246;SDS011;16272;48.188;9.964;2022-11-13T04:45:09;14.70;;;6.57;;
29246;SDS011;16272;48.188;9.964;2022-11-13T04:47:34;16.00;;;6.63;;
29246;SDS011;16272;48.188;9.964;2022-11-13T04:49:59;15.80;;;6.80;;
29246;SDS011;16272;48.188;9.964;2022-11-13T04:52:25;15.20;;;6.87;;
29246;SDS011;16272;48.188;9.964;2022-11-13T04:54:52;16.67;;;7.00;;
29246;SDS011;16272;48.188;9.964;2022-11-13T04:57:18;17.00;;;7.07;;
29246;SDS011;16272;48.188;9.964;2022-11-13T04:59:44;15.87;;;6.27;;
29246;SDS011;16272;48.188;9.964;2022-11-13T05:02:10;15.63;;;6.67;;
29246;SDS011;16272;48.188;9.964;2022-11-13T05:04:36;19.13;;;6.97;;
29246;SDS011;16272;48.188;9.964;2022-11-13T05:07:01;15.10;;;6.00;;
29246;SDS011;16272;48.188;9.964;2022-11-13T05:09:26;18.13;;;7.30;;
29246;SDS011;16272;48.188;9.964;2022-11-13T05:11:51;17.03;;;6.90;;
29246;SDS011;16272;48.188;9.964;2022-11-13T05:14:17;16.17;;;6.70;;
29246;SDS011;16272;48.188;9.964;2022-11-13T05:16:42;18.20;;;7.23;;
29246;SDS011;16272;48.188;9.964;2022-11-13T05:19:07;17.90;;;7.13;;
29246;SDS011;16272;48.188;9.964;2022-11-13T05:21:39;18.13;;;7.57;;
29246;SDS011;16272;48.188;9.964;2022-11-13T05:24:04;17.83;;;7.63;;
29246;SDS011;16272;48.188;9.964;2022-11-13T05:29:01;17.60;;;7.13;;
29246;SDS011;16272;48.188;9.964;2022-11-13T05:31:26;16.93;;;7.47;;
29246;SDS011;16272;48.188;9.964;2022-11-13T05:33:51;17.60;;;6.83;;
29246;SDS011;16272;48.188;9.964;2022-11-13T05:36:18;16.27;;;7.35;;
29246;SDS011;16272;48.188;9.964;2022-11-13T05:38:44;16.37;;;6.20;;
29246;SDS011;16272;48.188;9.964;2022-11-13T05:41:10;16.15;;;6.68;;
29246;SDS011;16272;48.188;9.964;2022-11-13T05:43:50;14.27;;;6.10;;
29246;SDS011;16272;48.188;9.964;2022-11-13T05:48:53;15.90;;;6.35;;
29246;SDS011;16272;48.188;9.964;2022-11-13T05:51:22;15.15;;;6.10;;
29246;SDS011;16272;48.188;9.964;2022-11-13T05:53:54;16.30;;;7.35;;
29246;SDS011;16272;48.188;9.964;2022-11-13T05:56:27;20.37;;;8.00;;
29246;SDS011;16272;48.188;9.964;2022-11-13T05:58:55;16.67;;;6.82;;
29246;SDS011;16272;48.188;9.964;2022-11-13T06:03:57;19.20;;;7.25;;
29246;SDS011;16272;48.188;9.964;2022-11-13T06:06:23;17.85;;;6.93;;
29246;SDS011;16272;48.188;9.964;2022-11-13T06:08:59;17.93;;;6.70;;
29246;SDS011;16272;48.188;9.964;2022-11-13T06:11:27;17.73;;;7.10;;
29246;SDS011;16272;48.188;9.964;2022-11-13T06:13:54;17.02;;;6.85;;
29246;SDS011;16272;48.188;9.964;2022-11-13T06:18:53;16.45;;;6.65;;
29246;SDS011;16272;48.188;9.964;2022-11-13T06:21:26;14.80;;;6.50;;
29246;SDS011;16272;48.188;9.964;2022-11-13T06:23:54;18.20;;;6.88;;
29246;SDS011;16272;48.188;9.964;2022-11-13T06:26:21;15.40;;;6.28;;
29246;SDS011;16272;48.188;9.964;2022-11-13T06:28:48;15.32;;;6.10;;
29246;SDS011;16272;48.188;9.964;2022-11-13T06:31:15;17.10;;;6.50;;
29246;SDS011;16272;48.188;9.964;2022-11-13T06:33:42;15.45;;;6.28;;
29246;SDS011;16272;48.188;9.964;2022-11-13T06:36:18;16.43;;;6.83;;
29246;SDS011;16272;48.188;9.964;2022-11-13T06:38:45;16.90;;;7.10;;
29246;SDS011;16272;48.188;9.964;2022-11-13T06:41:12;16.67;;;6.90;;
29246;SDS011;16272;48.188;9.964;2022-11-13T06:43:41;17.27;;;7.10;;
29246;SDS011;16272;48.188;9.964;2022-11-13T06:48:40;18.77;;;7.73;;
29246;SDS011;16272;48.188;9.964;2022-11-13T06:51:06;20.60;;;7.63;;
29246;SDS011;16272;48.188;9.964;2022-11-13T06:53:34;20.65;;;7.45;;
29246;SDS011;16272;48.188;9.964;2022-11-13T06:56:07;21.70;;;8.00;;
29246;SDS011;16272;48.188;9.964;2022-11-13T06:58:36;21.02;;;8.13;;
29246;SDS011;16272;48.188;9.964;2022-11-13T07:01:13;18.73;;;7.55;;
29246;SDS011;16272;48.188;9.964;2022-11-13T07:03:44;20.38;;;7.13;;
29246;SDS011;16272;48.188;9.964;2022-11-13T07:06:10;19.03;;;7.73;;
29246;SDS011;16272;48.188;9.964;2022-11-13T07:08:38;18.38;;;6.80;;
29246;SDS011;16272;48.188;9.964;2022-11-13T07:11:05;19.33;;;7.53;;
29246;SDS011;16272;48.188;9.964;2022-11-13T07:13:31;15.68;;;6.78;;
29246;SDS011;16272;48.188;9.964;2022-11-13T07:16:02;16.90;;;7.20;;
29246;SDS011;16272;48.188;9.964;2022-11-13T07:18:29;20.33;;;7.53;;
29246;SDS011;16272;48.188;9.964;2022-11-13T07:20:57;16.40;;;6.90;;
29246;SDS011;16272;48.188;9.964;2022-11-13T07:23:23;21.85;;;7.10;;
29246;SDS011;16272;48.188;9.964;2022-11-13T07:25:53;19.37;;;7.53;;
29246;SDS011;16272;48.188;9.964;2022-11-13T07:28:19;19.45;;;7.72;;
29246;SDS011;16272;48.188;9.964;2022-11-13T07:30:47;21.40;;;7.30;;
29246;SDS011;16272;48.188;9.964;2022-11-13T07:33:12;19.13;;;7.45;;
29246;SDS011;16272;48.188;9.964;2022-11-13T07:38:06;21.63;;;8.00;;
29246;SDS011;16272;48.188;9.964;2022-11-13T07:40:32;23.00;;;8.60;;
29246;SDS011;16272;48.188;9.964;2022-11-13T07:42:58;23.27;;;9.00;;
29246;SDS011;16272;48.188;9.964;2022-11-13T07:45:24;22.77;;;8.27;;
29246;SDS011;16272;48.188;9.964;2022-11-13T07:47:50;22.83;;;8.07;;
29246;SDS011;16272;48.188;9.964;2022-11-13T07:50:16;20.63;;;8.43;;
29246;SDS011;16272;48.188;9.964;2022-11-13T07:52:41;23.30;;;9.20;;
29246;SDS011;16272;48.188;9.964;2022-11-13T07:55:07;20.98;;;8.57;;
29246;SDS011;16272;48.188;9.964;2022-11-13T07:57:32;25.63;;;9.53;;
29246;SDS011;16272;48.188;9.964;2022-11-13T07:59:57;25.77;;;9.43;;
29246;SDS011;16272;48.188;9.964;2022-11-13T08:02:23;24.83;;;9.27;;
29246;SDS011;16272;48.188;9.964;2022-11-13T08:04:48;23.50;;;9.70;;
29246;SDS011;16272;48.188;9.964;2022-11-13T08:07:14;27.73;;;9.93;;
29246;SDS011;16272;48.188;9.964;2022-11-13T08:09:39;22.30;;;8.77;;
29246;SDS011;16272;48.188;9.964;2022-11-13T08:12:12;24.50;;;9.23;;
29246;SDS011;16272;48.188;9.964;2022-11-13T08:14:39;22.58;;;8.90;;
29246;SDS011;16272;48.188;9.964;2022-11-13T08:17:05;22.25;;;8.55;;
29246;SDS011;16272;48.188;9.964;2022-11-13T08:19:30;27.23;;;12.30;;
29246;SDS011;16272;48.188;9.964;2022-11-13T08:21:55;22.63;;;8.80;;
29246;SDS011;16272;48.188;9.964;2022-11-13T08:24:22;25.50;;;9.50;;
29246;SDS011;16272;48.188;9.964;2022-11-13T08:26:48;23.90;;;9.38;;
29246;SDS011;16272;48.188;9.964;2022-11-13T08:29:13;22.55;;;8.93;;
29246;SDS011;16272;48.188;9.964;2022-11-13T08:31:39;23.17;;;8.93;;
29246;SDS011;16272;48.188;9.964;2022-11-13T08:34:04;24.37;;;8.50;;
29246;SDS011;16272;48.188;9.964;2022-11-13T08:36:36;19.53;;;7.87;;
29246;SDS011;16272;48.188;9.964;2022-11-13T08:39:09;21.98;;;8.85;;
29246;SDS011;16272;48.188;9.964;2022-11-13T08:41:38;25.17;;;9.80;;
29246;SDS011;16272;48.188;9.964;2022-11-13T08:44:04;24.80;;;8.50;;
29246;SDS011;16272;48.188;9.964;2022-11-13T08:46:29;23.70;;;8.90;;
29246;SDS011;16272;48.188;9.964;2022-11-13T08:48:54;25.92;;;9.25;;
29246;SDS011;16272;48.188;9.964;2022-11-13T08:51:21;22.53;;;8.77;;
29246;SDS011;16272;48.188;9.964;2022-11-13T08:53:48;28.08;;;10.85;;
29246;SDS011;16272;48.188;9.964;2022-11-13T08:56:13;23.48;;;8.88;;
29246;SDS011;16272;48.188;9.964;2022-11-13T08:58:38;22.20;;;8.83;;
29246;SDS011;16272;48.188;9.964;2022-11-13T09:01:04;22.17;;;8.40;;
29246;SDS011;16272;48.188;9.964;2022-11-13T09:03:29;23.40;;;8.73;;
29246;SDS011;16272;48.188;9.964;2022-11-13T09:05:54;23.50;;;8.60;;
29246;SDS011;16272;48.188;9.964;2022-11-13T09:08:22;22.73;;;8.20;;
29246;SDS011;16272;48.188;9.964;2022-11-13T09:10:49;19.17;;;7.47;;
29246;SDS011;16272;48.188;9.964;2022-11-13T09:13:16;20.10;;;7.70;;
29246;SDS011;16272;48.188;9.964;2022-11-13T09:15:41;18.85;;;8.00;;
29246;SDS011;16272;48.188;9.964;2022-11-13T09:18:08;19.13;;;8.10;;
29246;SDS011;16272;48.188;9.964;2022-11-13T09:20:33;21.77;;;9.32;;
29246;SDS011;16272;48.188;9.964;2022-11-13T09:22:59;22.10;;;8.37;;
29246;SDS011;16272;48.188;9.964;2022-11-13T09:25:26;19.23;;;7.70;;
29246;SDS011;16272;48.188;9.964;2022-11-13T09:27:54;20.80;;;8.27;;
29246;SDS011;16272;48.188;9.964;2022-11-13T09:30:25;20.73;;;8.48;;
29246;SDS011;16272;48.188;9.964;2022-11-13T09:32:56;20.10;;;7.63;;
29246;SDS011;16272;48.188;9.964;2022-11-13T09:35:23;18.77;;;7.53;;
29246;SDS011;16272;48.188;9.964;2022-11-13T09:38:09;20.08;;;8.48;;
29246;SDS011;16272;48.188;9.964;2022-11-13T09:40:46;23.13;;;9.27;;
29246;SDS011;16272;48.188;9.964;2022-11-13T09:46:04;22.03;;;8.47;;
29246;SDS011;16272;48.188;9.964;2022-11-13T09:48:37;20.17;;;7.75;;
29246;SDS011;16272;48.188;9.964;2022-11-13T09:51:06;19.00;;;8.35;;
29246;SDS011;16272;48.188;9.964;2022-11-13T09:53:39;19.00;;;7.93;;
29246;SDS011;16272;48.188;9.964;2022-11-13T10:01:40;20.10;;;8.27;;
29246;SDS011;16272;48.188;9.964;2022-11-13T10:04:10;19.88;;;8.05;;
29246;SDS011;16272;48.188;9.964;2022-11-13T10:09:13;19.15;;;8.15;;
29246;SDS011;16272;48.188;9.964;2022-11-13T10:11:50;17.70;;;7.37;;
29246;SDS011;16272;48.188;9.964;2022-11-13T10:14:22;19.00;;;7.72;;
29246;SDS011;16272;48.188;9.964;2022-11-13T10:16:57;21.30;;;9.63;;
29246;SDS011;16272;48.188;9.964;2022-11-13T10:19:35;19.85;;;8.23;;
29246;SDS011;16272;48.188;9.964;2022-11-13T10:22:16;18.48;;;8.02;;
29246;SDS011;16272;48.188;9.964;2022-11-13T10:24:49;17.47;;;7.50;;
29246;SDS011;16272;48.188;9.964;2022-11-13T10:27:23;19.02;;;7.50;;
29246;SDS011;16272;48.188;9.964;2022-11-13T10:29:48;17.10;;;7.72;;
29246;SDS011;16272;48.188;9.964;2022-11-13T10:32:30;16.20;;;7.17;;
29246;SDS011;16272;48.188;9.964;2022-11-13T10:35:04;17.45;;;7.32;;
29246;SDS011;16272;48.188;9.964;2022-11-13T10:40:27;17.48;;;7.30;;
29246;SDS011;16272;48.188;9.964;2022-11-13T10:45:57;15.70;;;7.10;;
29246;SDS011;16272;48.188;9.964;2022-11-13T10:48:29;17.33;;;7.72;;
29246;SDS011;16272;48.188;9.964;2022-11-13T10:51:14;15.88;;;6.97;;
29246;SDS011;16272;48.188;9.964;2022-11-13T10:53:52;15.57;;;6.28;;
29246;SDS011;16272;48.188;9.964;2022-11-13T10:56:21;16.27;;;7.07;;
29246;SDS011;16272;48.188;9.964;2022-11-13T11:01:41;16.83;;;7.07;;
29246;SDS011;16272;48.188;9.964;2022-11-13T11:04:28;17.65;;;7.57;;
29246;SDS011;16272;48.188;9.964;2022-11-13T11:06:54;15.25;;;7.25;;
29246;SDS011;16272;48.188;9.964;2022-11-13T11:12:17;16.20;;;6.43;;
29246;SDS011;16272;48.188;9.964;2022-11-13T11:17:44;16.10;;;7.22;;
29246;SDS011;16272;48.188;9.964;2022-11-13T11:23:03;15.02;;;6.65;;
29246;SDS011;16272;48.188;9.964;2022-11-13T11:25:52;17.15;;;7.63;;
29246;SDS011;16272;48.188;9.964;2022-11-13T11:31:26;14.75;;;6.35;;
29246;SDS011;16272;48.188;9.964;2022-11-13T11:37:11;12.50;;;5.43;;
29246;SDS011;16272;48.188;9.964;2022-11-13T11:39:43;14.10;;;6.25;;
29246;SDS011;16272;48.188;9.964;2022-11-13T11:45:45;13.75;;;5.88;;
29246;SDS011;16272;48.188;9.964;2022-11-13T11:48:12;14.17;;;6.37;;
29246;SDS011;16272;48.188;9.964;2022-11-13T11:51:12;14.18;;;6.53;;
29246;SDS011;16272;48.188;9.964;2022-11-13T11:54:10;13.48;;;6.25;;
29246;SDS011;16272;48.188;9.964;2022-11-13T11:56:56;17.00;;;7.13;;
29246;SDS011;16272;48.188;9.964;2022-11-13T12:05:40;13.60;;;6.25;;
29246;SDS011;16272;48.188;9.964;2022-11-13T12:13:48;13.93;;;6.32;;
29246;SDS011;16272;48.188;9.964;2022-11-13T12:16:36;15.25;;;7.03;;
29246;SDS011;16272;48.188;9.964;2022-11-13T12:19:07;14.55;;;6.80;;
29246;SDS011;16272;48.188;9.964;2022-11-13T12:24:45;15.45;;;7.10;;
29246;SDS011;16272;48.188;9.964;2022-11-13T12:27:37;13.88;;;6.57;;
29246;SDS011;16272;48.188;9.964;2022-11-13T12:30:20;15.23;;;6.88;;
29246;SDS011;16272;48.188;9.964;2022-11-13T12:35:36;14.60;;;7.27;;
29246;SDS011;16272;48.188;9.964;2022-11-13T12:38:12;14.57;;;6.85;;
29246;SDS011;16272;48.188;9.964;2022-11-13T12:51:52;14.75;;;7.10;;
29246;SDS011;16272;48.188;9.964;2022-11-13T12:54:35;15.18;;;7.63;;
29246;SDS011;16272;48.188;9.964;2022-11-13T13:07:51;15.27;;;7.13;;
29246;SDS011;16272;48.188;9.964;2022-11-13T13:16:50;14.80;;;7.03;;
29246;SDS011;16272;48.188;9.964;2022-11-13T13:19:23;16.30;;;7.25;;
29246;SDS011;16272;48.188;9.964;2022-11-13T13:21:53;15.07;;;6.80;;
29246;SDS011;16272;48.188;9.964;2022-11-13T13:26:58;15.18;;;7.78;;
29246;SDS011;16272;48.188;9.964;2022-11-13T13:29:24;17.33;;;8.03;;
29246;SDS011;16272;48.188;9.964;2022-11-13T13:32:00;16.50;;;7.32;;
29246;SDS011;16272;48.188;9.964;2022-11-13T13:43:08;15.80;;;7.47;;
29246;SDS011;16272;48.188;9.964;2022-11-13T13:45:42;16.30;;;7.63;;
29246;SDS011;16272;48.188;9.964;2022-11-13T13:48:18;16.75;;;7.65;;
29246;SDS011;16272;48.188;9.964;2022-11-13T13:50:48;15.18;;;6.80;;
29246;SDS011;16272;48.188;9.964;2022-11-13T13:53:24;14.90;;;6.80;;
29246;SDS011;16272;48.188;9.964;2022-11-13T13:55:54;14.03;;;6.57;;
29246;SDS011;16272;48.188;9.964;2022-11-13T13:58:27;15.95;;;7.07;;
29246;SDS011;16272;48.188;9.964;2022-11-13T14:00:57;15.93;;;7.57;;
29246;SDS011;16272;48.188;9.964;2022-11-13T14:03:24;15.02;;;6.78;;
29246;SDS011;16272;48.188;9.964;2022-11-13T14:05:50;13.23;;;7.20;;
29246;SDS011;16272;48.188;9.964;2022-11-13T14:08:17;15.38;;;7.13;;
29246;SDS011;16272;48.188;9.964;2022-11-13T14:10:44;14.40;;;6.65;;
29246;SDS011;16272;48.188;9.964;2022-11-13T14:13:11;13.27;;;6.00;;
29246;SDS011;16272;48.188;9.964;2022-11-13T14:15:38;14.02;;;5.43;;
29246;SDS011;16272;48.188;9.964;2022-11-13T14:18:13;17.10;;;7.33;;
29246;SDS011;16272;48.188;9.964;2022-11-13T14:23:18;17.13;;;7.75;;
29246;SDS011;16272;48.188;9.964;2022-11-13T14:25:58;18.23;;;7.57;;
29246;SDS011;16272;48.188;9.964;2022-11-13T14:28:27;14.17;;;6.03;;
29246;SDS011;16272;48.188;9.964;2022-11-13T14:31:07;18.08;;;7.30;;
29246;SDS011;16272;48.188;9.964;2022-11-13T14:33:35;18.42;;;7.63;;
29246;SDS011;16272;48.188;9.964;2022-11-13T14:36:06;17.00;;;7.30;;
29246;SDS011;16272;48.188;9.964;2022-11-13T14:38:33;16.03;;;6.70;;
29246;SDS011;16272;48.188;9.964;2022-11-13T14:41:00;18.60;;;8.00;;
29246;SDS011;16272;48.188;9.964;2022-11-13T14:43:31;17.92;;;7.32;;
29246;SDS011;16272;48.188;9.964;2022-11-13T14:46:02;18.73;;;7.80;;
29246;SDS011;16272;48.188;9.964;2022-11-13T14:48:29;19.33;;;8.95;;
29246;SDS011;16272;48.188;9.964;2022-11-13T14:51:03;21.30;;;9.33;;
29246;SDS011;16272;48.188;9.964;2022-11-13T14:53:31;18.35;;;8.23;;
29246;SDS011;16272;48.188;9.964;2022-11-13T14:56:05;18.02;;;8.50;;
29246;SDS011;16272;48.188;9.964;2022-11-13T14:58:37;19.33;;;8.55;;
29246;SDS011;16272;48.188;9.964;2022-11-13T15:01:14;20.75;;;9.15;;
29246;SDS011;16272;48.188;9.964;2022-11-13T15:03:45;19.63;;;8.67;;
29246;SDS011;16272;48.188;9.964;2022-11-13T15:06:19;18.90;;;8.30;;
29246;SDS011;16272;48.188;9.964;2022-11-13T15:08:48;19.40;;;9.27;;
29246;SDS011;16272;48.188;9.964;2022-11-13T15:11:18;17.40;;;7.95;;
29246;SDS011;16272;48.188;9.964;2022-11-13T15:13:45;18.90;;;8.63;;
29246;SDS011;16272;48.188;9.964;2022-11-13T15:16:44;20.43;;;8.67;;
29246;SDS011;16272;48.188;9.964;2022-11-13T15:21:40;20.63;;;9.30;;
29246;SDS011;16272;48.188;9.964;2022-11-13T15:24:08;18.55;;;8.10;;
29246;SDS011;16272;48.188;9.964;2022-11-13T15:26:36;17.73;;;8.07;;
29246;SDS011;16272;48.188;9.964;2022-11-13T15:29:10;20.17;;;8.50;;
29246;SDS011;16272;48.188;9.964;2022-11-13T15:31:42;18.27;;;8.38;;
29246;SDS011;16272;48.188;9.964;2022-11-13T15:34:14;19.60;;;8.07;;
29246;SDS011;16272;48.188;9.964;2022-11-13T15:36:45;17.83;;;7.82;;
29246;SDS011;16272;48.188;9.964;2022-11-13T15:39:12;18.70;;;8.55;;
29246;SDS011;16272;48.188;9.964;2022-11-13T15:41:39;21.10;;;9.60;;
29246;SDS011;16272;48.188;9.964;2022-11-13T15:44:14;20.13;;;8.50;;
29246;SDS011;16272;48.188;9.964;2022-11-13T15:46:40;19.87;;;9.07;;
29246;SDS011;16272;48.188;9.964;2022-11-13T15:49:05;17.13;;;8.15;;
29246;SDS011;16272;48.188;9.964;2022-11-13T15:51:45;18.07;;;8.00;;
29246;SDS011;16272;48.188;9.964;2022-11-13T15:56:43;16.50;;;7.57;;
29246;SDS011;16272;48.188;9.964;2022-11-13T15:59:15;19.02;;;8.45;;
29246;SDS011;16272;48.188;9.964;2022-11-13T16:01:40;20.08;;;8.80;;
29246;SDS011;16272;48.188;9.964;2022-11-13T16:04:07;18.30;;;8.50;;
29246;SDS011;16272;48.188;9.964;2022-11-13T16:06:33;19.45;;;8.60;;
29246;SDS011;16272;48.188;9.964;2022-11-13T16:09:00;18.13;;;8.65;;
29246;SDS011;16272;48.188;9.964;2022-11-13T16:11:33;17.80;;;8.35;;
29246;SDS011;16272;48.188;9.964;2022-11-13T16:14:01;20.15;;;9.00;;
29246;SDS011;16272;48.188;9.964;2022-11-13T16:19:12;19.00;;;8.10;;
29246;SDS011;16272;48.188;9.964;2022-11-13T16:21:42;17.65;;;8.38;;
29246;SDS011;16272;48.188;9.964;2022-11-13T16:24:18;17.20;;;7.72;;
29246;SDS011;16272;48.188;9.964;2022-11-13T16:26:52;17.70;;;7.90;;
29246;SDS011;16272;48.188;9.964;2022-11-13T16:29:21;18.43;;;8.63;;
29246;SDS011;16272;48.188;9.964;2022-11-13T16:31:47;16.70;;;7.88;;
29246;SDS011;16272;48.188;9.964;2022-11-13T16:34:14;16.40;;;8.03;;
29246;SDS011;16272;48.188;9.964;2022-11-13T16:36:40;18.63;;;7.32;;
29246;SDS011;16272;48.188;9.964;2022-11-13T16:39:13;17.98;;;7.38;;
29246;SDS011;16272;48.188;9.964;2022-11-13T16:41:47;17.73;;;8.50;;
29246;SDS011;16272;48.188;9.964;2022-11-13T16:44:12;17.30;;;7.70;;
29246;SDS011;16272;48.188;9.964;2022-11-13T16:46:39;17.70;;;7.57;;
29246;SDS011;16272;48.188;9.964;2022-11-13T16:49:12;19.75;;;7.85;;
29246;SDS011;16272;48.188;9.964;2022-11-13T16:51:43;17.00;;;7.72;;
29246;SDS011;16272;48.188;9.964;2022-11-13T16:54:09;17.88;;;7.60;;